Nsu Inspire — 3FID5 — position and weather

sailwx.info

Track history (hours):
 
Tides and Currents Weather Stations Pressure Air Temp Water Temp Dewpoint Dewpoint Depression Visibility Wind Speed Wind Dir Waves Ship Positions

Nsu Inspire

Last reported at 2018-Feb-16 11:02 UTC. Time now 2018-Feb-22 18:37 UTC.
Position N 01°14' E 103°26'.

Length 330 m; draft 12.3 m.

Type: Cargo ship. MMSI: 372998000.

Date/timePositionNaut miles runAvg speedWind from/ knotsBaromVisibWave heightAir tempDewpointWater temp
2018-Feb-16 11:02N 01°14' E 103°26'114.2
2018-Feb-16 10:58N 01°14' E 103°27'814.0
2018-Feb-16 10:25N 01°12' E 103°35'511.7
2018-Feb-16 10:00N 01°11' E 103°39'611.6
2018-Feb-16 09:30N 01°08' E 103°45'510.7
2018-Feb-16 09:00N 01°11' E 103°49'4 8.2
2018-Feb-16 08:30N 01°13' E 103°53'5 9.2
2018-Feb-16 08:00N 01°15' E 103°57'4 8.0
2018-Feb-16 07:28N 01°17' E 104°01'0 0.1
2018-Feb-16 02:38N 01°17' E 104°01'0 0.1
2018-Feb-16 02:26N 01°17' E 104°01'0 0.0
2018-Feb-16 00:53N 01°17' E 104°01'0 0.0
2018-Feb-15 23:14N 01°17' E 104°01'0 0.0
2018-Feb-15 22:20N 01°17' E 104°01'0 0.1
2018-Feb-15 21:41N 01°17' E 104°01'0 0.0
2018-Feb-15 21:05N 01°17' E 104°01'0 0.0
2018-Feb-15 20:56N 01°17' E 104°01'0 0.0
2018-Feb-15 14:59N 01°17' E 104°01'0 0.0
2018-Feb-15 13:59N 01°17' E 104°01'0 0.0
2018-Feb-15 12:32N 01°17' E 104°01'0 0.0
2018-Feb-15 12:26N 01°17' E 104°01'0 0.3
2018-Feb-15 11:38N 01°17' E 104°01'0 0.7
2018-Feb-15 11:30N 01°17' E 104°01'1 2.3
2018-Feb-15 10:56N 01°16' E 103°60'2 3.1
2018-Feb-15 10:25N 01°15' E 103°58'2 4.4
2018-Feb-15 10:00N 01°16' E 104°00'3 6.3
2018-Feb-15 09:29N 01°16' E 104°03'5 8.5
2018-Feb-15 08:56N 01°16' E 104°08'  
2018-Feb-10 08:21N 22°13' E 121°21'412.8
2018-Feb-10 08:00N 22°16' E 121°24'913.2
2018-Feb-10 07:20N 22°23' E 121°31'3113.1
2018-Feb-10 04:58N 22°48' E 121°50'612.6
2018-Feb-10 04:29N 22°53' E 121°54'712.5
2018-Feb-10 03:57N 22°58' E 121°58'1812.2
2018-Feb-10 02:31N 23°15' E 122°04'113.2
2018-Feb-10 02:27N 23°16' E 122°05'2213.1
2018-Feb-10 00:44N 23°37' E 122°11'312.9
2018-Feb-10 00:30N 23°40' E 122°11'712.8
2018-Feb-09 23:55N 23°48' E 122°14'512.6
2018-Feb-09 23:30N 23°52' E 122°15'612.5
2018-Feb-09 23:00N 23°58' E 122°17'312.3
2018-Feb-09 22:44N 24°02' E 122°18'312.1
2018-Feb-09 22:31N 24°04' E 122°19'612.4
2018-Feb-09 22:01N 24°10' E 122°20'1212.2
2018-Feb-09 21:01N 24°22' E 122°24'1711.5
2018-Feb-09 19:31N 24°39' E 122°28'1211.7
2018-Feb-09 18:31N 24°51' E 122°30'1711.5
2018-Feb-09 17:00N 25°07' E 122°37'611.9
2018-Feb-09 16:31N 25°12' E 122°38'  
Track history (hours):
 
Tides and Currents Weather Stations Pressure Air Temp Water Temp Dewpoint Dewpoint Depression Visibility Wind Speed Wind Dir Waves Ship Positions

Nsu Inspire

Last reported at 2018-Feb-16 11:02 UTC. Time now 2018-Feb-22 18:37 UTC.
Position N 01°14' E 103°26'.

Length 330 m; draft 12.3 m.

Type: Cargo ship. MMSI: 372998000.

Date/timePositionNaut miles runAvg speedWind from/ knotsBaromVisibWave heightAir tempDewpointWater temp
2018-Feb-16 11:02N 01°14' E 103°26'114.2
2018-Feb-16 10:58N 01°14' E 103°27'814.0
2018-Feb-16 10:25N 01°12' E 103°35'511.7
2018-Feb-16 10:00N 01°11' E 103°39'611.6
2018-Feb-16 09:30N 01°08' E 103°45'510.7
2018-Feb-16 09:00N 01°11' E 103°49'4 8.2
2018-Feb-16 08:30N 01°13' E 103°53'5 9.2
2018-Feb-16 08:00N 01°15' E 103°57'4 8.0
2018-Feb-16 07:28N 01°17' E 104°01'0 0.1
2018-Feb-16 02:38N 01°17' E 104°01'0 0.1
2018-Feb-16 02:26N 01°17' E 104°01'0 0.0
2018-Feb-16 00:53N 01°17' E 104°01'0 0.0
2018-Feb-15 23:14N 01°17' E 104°01'0 0.0
2018-Feb-15 22:20N 01°17' E 104°01'0 0.1
2018-Feb-15 21:41N 01°17' E 104°01'0 0.0
2018-Feb-15 21:05N 01°17' E 104°01'0 0.0
2018-Feb-15 20:56N 01°17' E 104°01'0 0.0
2018-Feb-15 14:59N 01°17' E 104°01'0 0.0
2018-Feb-15 13:59N 01°17' E 104°01'0 0.0
2018-Feb-15 12:32N 01°17' E 104°01'0 0.0
2018-Feb-15 12:26N 01°17' E 104°01'0 0.3
2018-Feb-15 11:38N 01°17' E 104°01'0 0.7
2018-Feb-15 11:30N 01°17' E 104°01'1 2.3
2018-Feb-15 10:56N 01°16' E 103°60'2 3.1
2018-Feb-15 10:25N 01°15' E 103°58'2 4.4
2018-Feb-15 10:00N 01°16' E 104°00'3 6.3
2018-Feb-15 09:29N 01°16' E 104°03'5 8.5
2018-Feb-15 08:56N 01°16' E 104°08'  
2018-Feb-10 08:21N 22°13' E 121°21'412.8
2018-Feb-10 08:00N 22°16' E 121°24'913.2
2018-Feb-10 07:20N 22°23' E 121°31'3113.1
2018-Feb-10 04:58N 22°48' E 121°50'612.6
2018-Feb-10 04:29N 22°53' E 121°54'712.5
2018-Feb-10 03:57N 22°58' E 121°58'1812.2
2018-Feb-10 02:31N 23°15' E 122°04'113.2
2018-Feb-10 02:27N 23°16' E 122°05'2213.1
2018-Feb-10 00:44N 23°37' E 122°11'312.9
2018-Feb-10 00:30N 23°40' E 122°11'712.8
2018-Feb-09 23:55N 23°48' E 122°14'512.6
2018-Feb-09 23:30N 23°52' E 122°15'612.5
2018-Feb-09 23:00N 23°58' E 122°17'312.3
2018-Feb-09 22:44N 24°02' E 122°18'312.1
2018-Feb-09 22:31N 24°04' E 122°19'612.4
2018-Feb-09 22:01N 24°10' E 122°20'1212.2
2018-Feb-09 21:01N 24°22' E 122°24'1711.5
2018-Feb-09 19:31N 24°39' E 122°28'1211.7
2018-Feb-09 18:31N 24°51' E 122°30'1711.5
2018-Feb-09 17:00N 25°07' E 122°37'611.9
2018-Feb-09 16:31N 25°12' E 122°38'  

Dump ship's entire track history